createdAt,value
2016-10-23T00:00:23.343Z,1010.64
2016-10-23T00:01:23.361Z,1010.63
2016-10-23T00:02:23.382Z,1010.65
2016-10-23T00:03:23.403Z,1010.61
2016-10-23T00:04:23.423Z,1010.6
2016-10-23T00:05:23.444Z,1010.66
2016-10-23T00:06:23.459Z,1010.67
2016-10-23T00:07:23.479Z,1010.63
2016-10-23T00:08:23.499Z,1010.66
2016-10-23T00:09:23.518Z,1010.64
2016-10-23T00:10:23.538Z,1010.64
2016-10-23T00:11:23.558Z,1010.65
2016-10-23T00:13:23.596Z,1010.64
2016-10-23T00:14:23.618Z,1010.65
2016-10-23T00:15:23.637Z,1010.67
2016-10-23T00:16:23.655Z,1010.67
2016-10-23T00:17:23.677Z,1010.67
2016-10-23T00:18:23.697Z,1010.63
2016-10-23T00:19:23.714Z,1010.68
2016-10-23T00:20:23.733Z,1010.68
2016-10-23T00:21:23.755Z,1010.65
2016-10-23T00:22:23.772Z,1010.66
2016-10-23T00:23:23.795Z,1010.67
2016-10-23T00:24:23.811Z,1010.69
2016-10-23T00:25:23.833Z,1010.66
2016-10-23T00:26:23.851Z,1010.67
2016-10-23T00:27:23.871Z,1010.69
2016-10-23T00:29:23.911Z,1010.66
2016-10-23T00:30:23.931Z,1010.67
2016-10-23T00:31:23.950Z,1010.66
2016-10-23T00:32:23.967Z,1010.69
2016-10-23T00:33:23.989Z,1010.69
2016-10-23T00:34:24.006Z,1010.69
2016-10-23T00:35:24.026Z,1010.7
2016-10-23T00:36:24.048Z,1010.68
2016-10-23T00:37:24.066Z,1010.68
2016-10-23T00:38:24.086Z,1010.73
2016-10-23T00:39:24.104Z,1010.72
2016-10-23T00:40:24.124Z,1010.74
2016-10-23T00:41:24.143Z,1010.76
2016-10-23T00:42:24.165Z,1010.7
2016-10-23T00:44:24.204Z,1010.72
2016-10-23T00:45:24.221Z,1010.73
2016-10-23T00:46:24.241Z,1010.71
2016-10-23T00:47:24.260Z,1010.7
2016-10-23T00:48:24.282Z,1010.7
2016-10-23T00:49:24.299Z,1010.68
2016-10-23T00:50:24.322Z,1010.67
2016-10-23T00:51:24.338Z,1010.7
2016-10-23T00:52:24.359Z,1010.72
2016-10-23T00:53:24.379Z,1010.7
2016-10-23T00:54:24.396Z,1010.72
2016-10-23T00:55:24.416Z,1010.74
2016-10-23T00:56:24.434Z,1010.7
2016-10-23T00:57:24.454Z,1010.71
2016-10-23T00:58:24.476Z,1010.76
2016-10-23T00:59:24.494Z,1010.71
2016-10-23T01:00:24.513Z,1010.73
2016-10-23T01:01:24.532Z,1010.7
2016-10-23T01:02:24.552Z,1010.7
2016-10-23T01:03:24.570Z,1010.67
2016-10-23T01:04:24.590Z,1010.75
2016-10-23T01:05:24.611Z,1010.75
2016-10-23T01:06:24.633Z,1010.75
2016-10-23T01:07:24.650Z,1010.76
2016-10-23T01:08:24.670Z,1010.77
2016-10-23T01:09:24.687Z,1010.76
2016-10-23T01:10:24.707Z,1010.79
2016-10-23T01:11:24.728Z,1010.78
2016-10-23T01:12:24.745Z,1010.73
2016-10-23T01:13:24.767Z,1010.77
2016-10-23T01:14:24.784Z,1010.74
2016-10-23T01:16:24.825Z,1010.73
2016-10-23T01:17:24.845Z,1010.76
2016-10-23T01:18:24.861Z,1010.72
2016-10-23T01:19:24.883Z,1010.75
2016-10-23T01:20:24.901Z,1010.73
2016-10-23T01:21:24.921Z,1010.72
2016-10-23T01:22:24.941Z,1010.71
2016-10-23T01:23:24.959Z,1010.7
2016-10-23T01:24:24.981Z,1010.67
2016-10-23T01:25:24.997Z,1010.65
2016-10-23T01:26:25.017Z,1010.66
2016-10-23T01:27:25.037Z,1010.63
2016-10-23T01:28:25.057Z,1010.57
2016-10-23T01:29:25.077Z,1010.59
2016-10-23T01:30:25.096Z,1010.59
2016-10-23T01:32:25.134Z,1010.62
2016-10-23T01:33:25.154Z,1010.65
2016-10-23T01:34:25.173Z,1010.64
2016-10-23T01:35:25.192Z,1010.66
2016-10-23T01:36:25.211Z,1010.66
2016-10-23T01:37:25.230Z,1010.68
2016-10-23T01:38:25.252Z,1010.68
2016-10-23T01:39:25.269Z,1010.65
2016-10-23T01:40:25.288Z,1010.66
2016-10-23T01:41:25.310Z,1010.68
2016-10-23T01:42:25.327Z,1010.64
2016-10-23T01:43:25.349Z,1010.66
2016-10-23T01:44:25.366Z,1010.63
2016-10-23T01:45:25.388Z,1010.64
2016-10-23T01:46:25.405Z,1010.66
2016-10-23T01:48:25.446Z,1010.63
2016-10-23T01:49:25.464Z,1010.62
2016-10-23T01:50:25.483Z,1010.59
2016-10-23T01:51:25.502Z,1010.61
2016-10-23T01:52:25.522Z,1010.56
2016-10-23T01:53:25.541Z,1010.6
2016-10-23T01:54:25.561Z,1010.59
2016-10-23T01:55:25.582Z,1010.58
2016-10-23T01:56:25.603Z,1010.57
2016-10-23T01:57:25.619Z,1010.54
2016-10-23T01:58:25.638Z,1010.55
2016-10-23T01:59:25.658Z,1010.52
2016-10-23T02:00:25.679Z,1010.54
2016-10-23T02:01:25.699Z,1010.53
2016-10-23T02:02:25.718Z,1010.53
2016-10-23T02:04:25.758Z,1010.52
2016-10-23T02:05:25.775Z,1010.56
2016-10-23T02:06:25.794Z,1010.56
2016-10-23T02:07:25.813Z,1010.58
2016-10-23T02:08:25.885Z,1010.58
2016-10-23T02:09:25.852Z,1010.58
2016-10-23T02:10:25.873Z,1010.58
2016-10-23T02:11:25.891Z,1010.59
2016-10-23T02:12:25.911Z,1010.6
2016-10-23T02:13:25.932Z,1010.58
2016-10-23T02:14:25.949Z,1010.6
2016-10-23T02:15:25.969Z,1010.63
2016-10-23T02:16:25.990Z,1010.59
2016-10-23T02:17:26.010Z,1010.63
2016-10-23T02:19:26.050Z,1010.62
2016-10-23T02:20:26.066Z,1010.66
2016-10-23T02:21:26.088Z,1010.66
2016-10-23T02:22:26.105Z,1010.66
2016-10-23T02:23:26.125Z,1010.63
2016-10-23T02:24:26.144Z,1010.63
2016-10-23T02:25:26.165Z,1010.63
2016-10-23T02:26:26.185Z,1010.67
2016-10-23T02:27:26.202Z,1010.68
2016-10-23T02:28:26.221Z,1010.68
2016-10-23T02:29:26.241Z,1010.69
2016-10-23T02:30:26.260Z,1010.68
2016-10-23T02:31:26.281Z,1010.67
2016-10-23T02:32:26.301Z,1010.66
2016-10-23T02:33:26.318Z,1010.65
2016-10-23T02:34:26.340Z,1010.66
2016-10-23T02:35:26.359Z,1010.65
2016-10-23T02:36:26.378Z,1010.65
2016-10-23T02:37:26.396Z,1010.7
2016-10-23T02:38:26.416Z,1010.66
2016-10-23T02:39:26.436Z,1010.71
2016-10-23T02:40:26.456Z,1010.67
2016-10-23T02:41:26.475Z,1010.65
2016-10-23T02:42:26.492Z,1010.65
2016-10-23T02:43:26.511Z,1010.67
2016-10-23T02:44:26.531Z,1010.67
2016-10-23T02:45:26.550Z,1010.67
2016-10-23T02:46:26.572Z,1010.67
2016-10-23T02:47:26.591Z,1010.65
2016-10-23T02:48:26.610Z,1010.63
2016-10-23T02:49:26.629Z,1010.61
2016-10-23T02:51:27.017Z,1010.63
2016-10-23T02:52:26.686Z,1010.63
2016-10-23T02:53:26.707Z,1010.6
2016-10-23T02:54:26.726Z,1010.59
2016-10-23T02:55:26.743Z,1010.6
2016-10-23T02:56:26.763Z,1010.57
2016-10-23T02:57:26.782Z,1010.57
2016-10-23T02:58:26.803Z,1010.59
2016-10-23T02:59:26.823Z,1010.59
2016-10-23T03:00:26.842Z,1010.56
2016-10-23T03:01:26.861Z,1010.54
2016-10-23T03:02:26.881Z,1010.56
2016-10-23T03:03:26.898Z,1010.54
2016-10-23T03:04:26.916Z,1010.6
2016-10-23T03:05:26.936Z,1010.6
2016-10-23T03:07:26.976Z,1010.6
2016-10-23T03:08:26.994Z,1010.59
2016-10-23T03:09:27.016Z,1010.59
2016-10-23T03:10:27.036Z,1010.58
2016-10-23T03:11:27.054Z,1010.58
2016-10-23T03:12:27.072Z,1010.59
2016-10-23T03:13:27.091Z,1010.56
2016-10-23T03:14:27.111Z,1010.59
2016-10-23T03:15:27.132Z,1010.59
2016-10-23T03:16:27.149Z,1010.57
2016-10-23T03:17:27.169Z,1010.56
2016-10-23T03:18:27.188Z,1010.56
2016-10-23T03:19:27.209Z,1010.58
2016-10-23T03:20:27.228Z,1010.61
2016-10-23T03:21:27.246Z,1010.59
2016-10-23T03:23:27.286Z,1010.58
2016-10-23T03:24:27.303Z,1010.62
2016-10-23T03:25:27.325Z,1010.62
2016-10-23T03:26:27.341Z,1010.59
2016-10-23T03:27:27.363Z,1010.55
2016-10-23T03:28:27.380Z,1010.56
2016-10-23T03:29:27.400Z,1010.59
2016-10-23T03:30:27.418Z,1010.61
2016-10-23T03:31:27.440Z,1010.61
2016-10-23T03:32:27.457Z,1010.61
2016-10-23T03:33:27.479Z,1010.6
2016-10-23T03:34:27.497Z,1010.62
2016-10-23T03:35:27.517Z,1010.6
2016-10-23T03:36:27.535Z,1010.6
2016-10-23T03:37:27.556Z,1010.61
2016-10-23T03:39:27.595Z,1010.61
2016-10-23T03:40:27.615Z,1010.64
2016-10-23T03:41:27.633Z,1010.62
2016-10-23T03:42:27.653Z,1010.66
2016-10-23T03:43:27.673Z,1010.64
2016-10-23T03:44:27.689Z,1010.67
2016-10-23T03:45:27.708Z,1010.67
2016-10-23T03:46:27.731Z,1010.68
2016-10-23T03:47:27.750Z,1010.68
2016-10-23T03:48:27.767Z,1010.73
2016-10-23T03:49:27.787Z,1010.69
2016-10-23T03:50:27.808Z,1010.7
2016-10-23T03:51:27.825Z,1010.71
2016-10-23T03:52:27.845Z,1010.71
2016-10-23T03:54:27.887Z,1010.67
2016-10-23T03:55:27.906Z,1010.68
2016-10-23T03:56:27.922Z,1010.68
2016-10-23T03:57:27.943Z,1010.69
2016-10-23T03:58:27.961Z,1010.69
2016-10-23T03:59:27.982Z,1010.66
2016-10-23T04:00:28.002Z,1010.65
2016-10-23T04:01:28.021Z,1010.68
2016-10-23T04:02:28.038Z,1010.68
2016-10-23T04:03:28.059Z,1010.71
2016-10-23T04:04:28.077Z,1010.69
2016-10-23T04:05:28.097Z,1010.67
2016-10-23T04:06:28.115Z,1010.67
2016-10-23T04:07:28.385Z,1010.69
2016-10-23T04:08:28.154Z,1010.67
2016-10-23T04:09:28.175Z,1010.69
2016-10-23T04:10:28.194Z,1010.68
2016-10-23T04:11:28.214Z,1010.69
2016-10-23T04:12:28.234Z,1010.68
2016-10-23T04:13:28.251Z,1010.71
2016-10-23T04:14:28.270Z,1010.75
2016-10-23T04:15:28.290Z,1010.75
2016-10-23T04:16:28.310Z,1010.76
2016-10-23T04:17:28.328Z,1010.72
2016-10-23T04:18:28.347Z,1010.78
2016-10-23T04:19:28.368Z,1010.79
2016-10-23T04:20:28.389Z,1010.75
2016-10-23T04:21:28.408Z,1010.79
2016-10-23T04:22:28.427Z,1010.8
2016-10-23T04:23:28.447Z,1010.77
2016-10-23T04:24:28.465Z,1010.79
2016-10-23T04:26:28.503Z,1010.78
2016-10-23T04:27:28.524Z,1010.75
2016-10-23T04:28:28.541Z,1010.76
2016-10-23T04:29:28.561Z,1010.74
2016-10-23T04:30:28.582Z,1010.71
2016-10-23T04:31:28.599Z,1010.72
2016-10-23T04:32:28.618Z,1010.75
2016-10-23T04:33:28.637Z,1010.74
2016-10-23T04:34:28.657Z,1010.76
2016-10-23T04:35:28.679Z,1010.72
2016-10-23T04:36:28.698Z,1010.71
2016-10-23T04:37:28.715Z,1010.74
2016-10-23T04:38:28.734Z,1010.78
2016-10-23T04:39:28.755Z,1010.77
2016-10-23T04:40:28.772Z,1010.77
2016-10-23T04:42:28.813Z,1010.79
2016-10-23T04:43:28.830Z,1010.82
2016-10-23T04:44:28.851Z,1010.8
2016-10-23T04:45:28.871Z,1010.8
2016-10-23T04:46:28.889Z,1010.79
2016-10-23T04:47:28.909Z,1010.77
2016-10-23T04:48:28.927Z,1010.8
2016-10-23T04:49:28.948Z,1010.83
2016-10-23T04:50:28.968Z,1010.77
2016-10-23T04:51:28.985Z,1010.8
2016-10-23T04:52:29.009Z,1010.77
2016-10-23T04:53:29.027Z,1010.79
2016-10-23T04:54:29.045Z,1010.82
2016-10-23T04:55:29.263Z,1010.79
2016-10-23T04:56:29.085Z,1010.83
2016-10-23T04:58:29.121Z,1010.88
2016-10-23T04:59:29.143Z,1010.84
2016-10-23T05:00:29.160Z,1010.85
2016-10-23T05:01:29.181Z,1010.86
2016-10-23T05:02:29.201Z,1010.83
2016-10-23T05:03:29.218Z,1010.85
2016-10-23T05:04:29.238Z,1010.86
2016-10-23T05:05:29.260Z,1010.87
2016-10-23T05:06:29.277Z,1010.88
2016-10-23T05:07:29.296Z,1010.86
2016-10-23T05:08:29.314Z,1010.84
2016-10-23T05:09:29.334Z,1010.85
2016-10-23T05:10:29.354Z,1010.86
2016-10-23T05:11:29.373Z,1010.85
2016-10-23T05:12:29.394Z,1010.87
2016-10-23T05:14:29.434Z,1010.85
2016-10-23T05:15:29.453Z,1010.84
2016-10-23T05:16:29.472Z,1010.86
2016-10-23T05:17:29.491Z,1010.87
2016-10-23T05:18:29.511Z,1010.83
2016-10-23T05:19:29.527Z,1010.83
2016-10-23T05:20:29.547Z,1010.87
2016-10-23T05:21:29.568Z,1010.84
2016-10-23T05:22:29.589Z,1010.85
2016-10-23T05:23:29.607Z,1010.88
2016-10-23T05:24:29.625Z,1010.83
2016-10-23T05:25:29.644Z,1010.81
2016-10-23T05:26:29.664Z,1010.85
2016-10-23T05:27:29.684Z,1010.86
2016-10-23T05:29:29.725Z,1010.84
2016-10-23T05:30:29.744Z,1010.86
2016-10-23T05:31:29.761Z,1010.91
2016-10-23T05:32:29.783Z,1010.87
2016-10-23T05:33:29.800Z,1010.95
2016-10-23T05:34:29.820Z,1010.93
2016-10-23T05:35:29.841Z,1010.93
2016-10-23T05:36:29.859Z,1010.94
2016-10-23T05:37:29.877Z,1010.95
2016-10-23T05:38:29.899Z,1010.94
2016-10-23T05:39:29.918Z,1010.97
2016-10-23T05:40:29.938Z,1010.97
2016-10-23T05:41:29.956Z,1011.01
2016-10-23T05:42:29.974Z,1011.04
2016-10-23T05:43:29.994Z,1011.05
2016-10-23T05:44:30.013Z,1011.02
2016-10-23T05:45:30.034Z,1011.03
2016-10-23T05:46:30.051Z,1011.08
2016-10-23T05:47:30.071Z,1011.07
2016-10-23T05:48:30.090Z,1011.04
2016-10-23T05:49:30.109Z,1011.07
2016-10-23T05:50:30.131Z,1011.06
2016-10-23T05:51:30.151Z,1011.06
2016-10-23T05:52:30.169Z,1011.06
2016-10-23T05:53:30.187Z,1011.09
2016-10-23T05:54:30.208Z,1011.11
2016-10-23T05:55:30.226Z,1011.09
2016-10-23T05:56:30.247Z,1011.08
2016-10-23T05:57:30.265Z,1011.13
2016-10-23T05:58:30.285Z,1011.12
2016-10-23T05:59:30.303Z,1011.12
2016-10-23T06:01:30.343Z,1011.14
2016-10-23T06:02:30.363Z,1011.17
2016-10-23T06:03:30.382Z,1011.2
2016-10-23T06:04:30.403Z,1011.21
2016-10-23T06:05:30.422Z,1011.16
2016-10-23T06:06:30.443Z,1011.18
2016-10-23T06:07:30.460Z,1011.18
2016-10-23T06:08:30.482Z,1011.16
2016-10-23T06:09:30.500Z,1011.18
2016-10-23T06:10:30.518Z,1011.16
2016-10-23T06:11:30.540Z,1011.19
2016-10-23T06:12:30.559Z,1011.16
2016-10-23T06:13:30.577Z,1011.19
2016-10-23T06:14:30.598Z,1011.18
2016-10-23T06:15:30.618Z,1011.16
2016-10-23T06:17:30.658Z,1011.21
2016-10-23T06:18:30.676Z,1011.2
2016-10-23T06:19:30.694Z,1011.23
2016-10-23T06:20:30.714Z,1011.23
2016-10-23T06:21:30.733Z,1011.26
2016-10-23T06:22:30.755Z,1011.26
2016-10-23T06:23:30.772Z,1011.25
2016-10-23T06:24:30.792Z,1011.24
2016-10-23T06:25:30.811Z,1011.27
2016-10-23T06:26:30.831Z,1011.31
2016-10-23T06:27:30.854Z,1011.3
2016-10-23T06:28:30.872Z,1011.32
2016-10-23T06:29:30.891Z,1011.29
2016-10-23T06:30:30.912Z,1011.34
2016-10-23T06:31:30.929Z,1011.34
2016-10-23T06:33:30.970Z,1011.36
2016-10-23T06:34:30.990Z,1011.39
2016-10-23T06:35:31.007Z,1011.38
2016-10-23T06:36:31.028Z,1011.36
2016-10-23T06:37:31.047Z,1011.34
2016-10-23T06:38:31.065Z,1011.38
2016-10-23T06:39:31.088Z,1011.4
2016-10-23T06:40:31.104Z,1011.39
2016-10-23T06:41:31.126Z,1011.4
2016-10-23T06:42:31.247Z,1011.43
2016-10-23T06:43:31.162Z,1011.42
2016-10-23T06:44:31.182Z,1011.44
2016-10-23T06:45:31.202Z,1011.4
2016-10-23T06:46:31.225Z,1011.45
2016-10-23T06:47:31.242Z,1011.44
2016-10-23T06:49:31.281Z,1011.41
2016-10-23T06:50:31.300Z,1011.47
2016-10-23T06:51:31.321Z,1011.48
2016-10-23T06:52:31.342Z,1011.46
2016-10-23T06:53:31.360Z,1011.48
2016-10-23T06:54:31.678Z,1011.49
2016-10-23T06:55:31.397Z,1011.47
2016-10-23T06:56:31.419Z,1011.55
2016-10-23T06:57:31.439Z,1011.54
2016-10-23T06:58:31.458Z,1011.55
2016-10-23T06:59:31.478Z,1011.54
2016-10-23T07:00:31.496Z,1011.58
2016-10-23T07:01:31.518Z,1011.6
2016-10-23T07:02:31.537Z,1011.6
2016-10-23T07:04:31.613Z,1011.64
2016-10-23T07:05:31.594Z,1011.6
2016-10-23T07:06:31.617Z,1011.64
2016-10-23T07:07:31.634Z,1011.63
2016-10-23T07:08:31.654Z,1011.63
2016-10-23T07:09:31.673Z,1011.63
2016-10-23T07:10:31.693Z,1011.63
2016-10-23T07:11:31.713Z,1011.61
2016-10-23T07:12:31.734Z,1011.69
2016-10-23T07:13:31.755Z,1011.66
2016-10-23T07:14:31.774Z,1011.67
2016-10-23T07:15:31.792Z,1011.66
2016-10-23T07:16:31.814Z,1011.67
2016-10-23T07:17:31.832Z,1011.67
2016-10-23T07:18:31.852Z,1011.69
2016-10-23T07:19:31.872Z,1011.68
2016-10-23T07:20:31.891Z,1011.68
2016-10-23T07:21:31.911Z,1011.71
2016-10-23T07:22:31.931Z,1011.76
2016-10-23T07:23:31.950Z,1011.76
2016-10-23T07:24:31.970Z,1011.75
2016-10-23T07:25:31.990Z,1011.81
2016-10-23T07:26:32.012Z,1011.79
2016-10-23T07:27:32.031Z,1011.77
2016-10-23T07:28:32.051Z,1011.78
2016-10-23T07:29:32.070Z,1011.83
2016-10-23T07:30:32.090Z,1011.82
2016-10-23T07:31:32.109Z,1011.79
2016-10-23T07:32:32.131Z,1011.84
2016-10-23T07:33:32.152Z,1011.85
2016-10-23T07:34:32.168Z,1011.84
2016-10-23T07:36:32.208Z,1011.91
2016-10-23T07:37:32.230Z,1011.93
2016-10-23T07:38:32.250Z,1011.92
2016-10-23T07:39:32.268Z,1011.93
2016-10-23T07:40:32.290Z,1011.95
2016-10-23T07:41:32.308Z,1011.93
2016-10-23T07:42:32.331Z,1011.95
2016-10-23T07:43:32.350Z,1011.95
2016-10-23T07:44:32.367Z,1011.97
2016-10-23T07:45:32.389Z,1011.94
2016-10-23T07:46:32.407Z,1011.98
2016-10-23T07:47:32.429Z,1011.98
2016-10-23T07:48:32.447Z,1011.96
2016-10-23T07:49:32.466Z,1011.99
2016-10-23T07:50:32.489Z,1011.98
2016-10-23T07:52:32.529Z,1011.98
2016-10-23T07:53:32.546Z,1012.01
2016-10-23T07:54:32.569Z,1012
2016-10-23T07:55:32.588Z,1012.03
2016-10-23T07:56:32.606Z,1012.05
2016-10-23T07:57:32.630Z,1011.99
2016-10-23T07:58:32.649Z,1012.04
2016-10-23T07:59:32.667Z,1011.98
2016-10-23T08:00:32.698Z,1011.99
2016-10-23T08:01:32.709Z,1012.01
2016-10-23T08:02:32.730Z,1011.96
2016-10-23T08:03:32.751Z,1012.02
2016-10-23T08:04:32.769Z,1012
2016-10-23T08:05:32.789Z,1012.02
2016-10-23T08:06:32.807Z,1012.01
2016-10-23T08:08:32.849Z,1012.03
2016-10-23T08:09:32.870Z,1012.03
2016-10-23T08:10:32.890Z,1012.06
2016-10-23T08:11:32.907Z,1012.04
2016-10-23T08:12:32.931Z,1012.04
2016-10-23T08:13:32.948Z,1012.04
2016-10-23T08:14:32.969Z,1012.06
2016-10-23T08:15:32.990Z,1012.08
2016-10-23T08:16:33.009Z,1012.12
2016-10-23T08:17:33.029Z,1012.13
2016-10-23T08:18:33.051Z,1012.13
2016-10-23T08:19:33.071Z,1012.12
2016-10-23T08:20:33.090Z,1012.11
2016-10-23T08:21:33.113Z,1012.16
2016-10-23T08:22:33.130Z,1012.14
2016-10-23T08:24:33.171Z,1012.18
2016-10-23T08:25:33.192Z,1012.17
2016-10-23T08:26:33.215Z,1012.15
2016-10-23T08:27:33.234Z,1012.17
2016-10-23T08:28:33.253Z,1012.16
2016-10-23T08:29:33.273Z,1012.12
2016-10-23T08:30:33.293Z,1012.14
2016-10-23T08:31:33.316Z,1012.14
2016-10-23T08:32:33.335Z,1012.16
2016-10-23T08:33:33.356Z,1012.18
2016-10-23T08:34:33.377Z,1012.15
2016-10-23T08:35:33.398Z,1012.15
2016-10-23T08:36:33.417Z,1012.21
2016-10-23T08:37:33.440Z,1012.19
2016-10-23T08:39:33.481Z,1012.25
2016-10-23T08:40:33.501Z,1012.21
2016-10-23T08:41:33.521Z,1012.26
2016-10-23T08:42:33.542Z,1012.28
2016-10-23T08:43:33.561Z,1012.26
2016-10-23T08:44:33.581Z,1012.31
2016-10-23T08:45:33.604Z,1012.36
2016-10-23T08:46:33.622Z,1012.32
2016-10-23T08:47:33.644Z,1012.35
2016-10-23T08:48:33.663Z,1012.35
2016-10-23T08:49:33.687Z,1012.34
2016-10-23T08:50:33.707Z,1012.34
2016-10-23T08:51:33.727Z,1012.34
2016-10-23T08:52:33.746Z,1012.4
2016-10-23T08:53:33.767Z,1012.39
2016-10-23T08:54:33.788Z,1012.41
2016-10-23T08:55:33.810Z,1012.39
2016-10-23T08:56:33.831Z,1012.39
2016-10-23T08:57:33.850Z,1012.43
2016-10-23T08:58:33.870Z,1012.44
2016-10-23T08:59:33.893Z,1012.44
2016-10-23T09:00:33.915Z,1012.43
2016-10-23T09:01:33.936Z,1012.43
2016-10-23T09:02:33.954Z,1012.42
2016-10-23T09:03:33.977Z,1012.46
2016-10-23T09:04:33.997Z,1012.44
2016-10-23T09:05:34.021Z,1012.45
2016-10-23T09:06:34.041Z,1012.43
2016-10-23T09:07:34.061Z,1012.49
2016-10-23T09:08:34.082Z,1012.46
2016-10-23T09:09:34.105Z,1012.51
2016-10-23T09:11:34.147Z,1012.45
2016-10-23T09:12:34.169Z,1012.49
2016-10-23T09:13:34.193Z,1012.48
2016-10-23T09:14:34.212Z,1012.45
2016-10-23T09:15:34.235Z,1012.45
2016-10-23T09:16:34.257Z,1012.44
2016-10-23T09:17:34.278Z,1012.42
2016-10-23T09:18:34.301Z,1012.4
2016-10-23T09:19:34.325Z,1012.41
2016-10-23T09:20:34.344Z,1012.43
2016-10-23T09:21:34.369Z,1012.41
2016-10-23T09:22:34.392Z,1012.39
2016-10-23T09:23:34.415Z,1012.41
2016-10-23T09:24:34.433Z,1012.4
2016-10-23T09:25:34.458Z,1012.39
2016-10-23T09:27:34.500Z,1012.38
2016-10-23T09:28:34.523Z,1012.37
2016-10-23T09:29:34.546Z,1012.42
2016-10-23T09:30:34.568Z,1012.38
2016-10-23T09:31:34.589Z,1012.4
2016-10-23T09:32:34.612Z,1012.36
2016-10-23T09:33:34.634Z,1012.4
2016-10-23T09:34:34.654Z,1012.43
2016-10-23T09:35:34.678Z,1012.41
2016-10-23T09:36:34.700Z,1012.43
2016-10-23T09:37:34.722Z,1012.43
2016-10-23T09:38:34.792Z,1012.44
2016-10-23T09:39:34.763Z,1012.45
2016-10-23T09:40:34.786Z,1012.43
2016-10-23T09:41:34.808Z,1012.41
2016-10-23T09:43:34.852Z,1012.4
2016-10-23T09:44:34.877Z,1012.37
2016-10-23T09:45:34.897Z,1012.36
2016-10-23T09:46:34.921Z,1012.36
2016-10-23T09:47:34.941Z,1012.41
2016-10-23T09:48:35.214Z,1012.44
2016-10-23T09:49:34.988Z,1012.41
2016-10-23T09:50:35.008Z,1012.49
2016-10-23T09:51:35.031Z,1012.45
2016-10-23T09:52:35.055Z,1012.48
2016-10-23T09:53:35.075Z,1012.46
2016-10-23T09:54:35.099Z,1012.48
2016-10-23T09:55:35.120Z,1012.44
2016-10-23T09:56:35.144Z,1012.43
2016-10-23T09:57:35.168Z,1012.44
2016-10-23T09:59:35.212Z,1012.47
2016-10-23T10:00:35.234Z,1012.49
2016-10-23T10:01:35.259Z,1012.46
2016-10-23T10:02:35.279Z,1012.44
2016-10-23T10:03:35.299Z,1012.49
2016-10-23T10:04:35.321Z,1012.44
2016-10-23T10:05:35.343Z,1012.45
2016-10-23T10:06:35.368Z,1012.43
2016-10-23T10:07:35.389Z,1012.47
2016-10-23T10:08:35.413Z,1012.42
2016-10-23T10:09:35.433Z,1012.45
2016-10-23T10:10:35.456Z,1012.39
2016-10-23T10:11:35.479Z,1012.45
2016-10-23T10:12:35.501Z,1012.43
2016-10-23T10:14:35.546Z,1012.43
2016-10-23T10:15:35.568Z,1012.41
2016-10-23T10:16:35.594Z,1012.44
2016-10-23T10:17:35.613Z,1012.45
2016-10-23T10:18:35.638Z,1012.45
2016-10-23T10:19:35.662Z,1012.4
2016-10-23T10:20:35.683Z,1012.43
2016-10-23T10:21:35.705Z,1012.45
2016-10-23T10:22:35.726Z,1012.41
2016-10-23T10:23:35.749Z,1012.44
2016-10-23T10:24:35.771Z,1012.44
2016-10-23T10:25:35.792Z,1012.44
2016-10-23T10:26:35.816Z,1012.46
2016-10-23T10:27:35.836Z,1012.42
2016-10-23T10:28:35.861Z,1012.44
2016-10-23T10:29:35.884Z,1012.43
2016-10-23T10:30:35.904Z,1012.48
2016-10-23T10:31:35.926Z,1012.49
2016-10-23T10:32:35.949Z,1012.46
2016-10-23T10:33:35.971Z,1012.44
2016-10-23T10:34:35.998Z,1012.45
2016-10-23T10:35:36.019Z,1012.46
2016-10-23T10:36:36.040Z,1012.46
2016-10-23T10:37:36.065Z,1012.46
2016-10-23T10:38:36.088Z,1012.49
2016-10-23T10:39:36.111Z,1012.48
2016-10-23T10:40:36.535Z,1012.45
2016-10-23T10:41:36.156Z,1012.48
2016-10-23T10:42:36.178Z,1012.46
2016-10-23T10:43:36.203Z,1012.51
2016-10-23T10:44:36.226Z,1012.5
2016-10-23T10:46:36.270Z,1012.45
2016-10-23T10:47:36.294Z,1012.44
2016-10-23T10:48:36.316Z,1012.43
2016-10-23T10:49:36.343Z,1012.45
2016-10-23T10:50:36.364Z,1012.44
2016-10-23T10:51:36.393Z,1012.44
2016-10-23T10:52:36.410Z,1012.45
2016-10-23T10:53:36.434Z,1012.45
2016-10-23T10:54:36.457Z,1012.43
2016-10-23T10:55:36.480Z,1012.41
2016-10-23T10:56:36.500Z,1012.45
2016-10-23T10:57:36.524Z,1012.51
2016-10-23T10:58:36.547Z,1012.51
2016-10-23T10:59:36.569Z,1012.5
2016-10-23T11:00:36.595Z,1012.49
2016-10-23T11:02:36.641Z,1012.48
2016-10-23T11:03:36.663Z,1012.52
2016-10-23T11:04:36.684Z,1012.47
2016-10-23T11:05:36.709Z,1012.49
2016-10-23T11:06:36.729Z,1012.46
2016-10-23T11:07:36.754Z,1012.48
2016-10-23T11:08:36.775Z,1012.49
2016-10-23T11:09:36.799Z,1012.5
2016-10-23T11:10:36.823Z,1012.51
2016-10-23T11:11:36.844Z,1012.48
2016-10-23T11:12:36.867Z,1012.49
2016-10-23T11:13:36.892Z,1012.47
2016-10-23T11:14:36.915Z,1012.46
2016-10-23T11:15:36.934Z,1012.43
2016-10-23T11:16:36.959Z,1012.45
2016-10-23T11:18:37.002Z,1012.45
2016-10-23T11:19:37.028Z,1012.4
2016-10-23T11:20:37.048Z,1012.41
2016-10-23T11:21:37.070Z,1012.38
2016-10-23T11:22:37.095Z,1012.36
2016-10-23T11:23:37.117Z,1012.39
2016-10-23T11:24:37.141Z,1012.3
2016-10-23T11:25:37.163Z,1012.33
2016-10-23T11:26:37.186Z,1012.29
2016-10-23T11:27:37.209Z,1012.35
2016-10-23T11:28:37.231Z,1012.33
2016-10-23T11:29:37.252Z,1012.31
2016-10-23T11:30:37.278Z,1012.32
2016-10-23T11:31:37.298Z,1012.33
2016-10-23T11:32:37.319Z,1012.33
2016-10-23T11:34:37.365Z,1012.32
2016-10-23T11:35:37.390Z,1012.3
2016-10-23T11:36:37.412Z,1012.31
2016-10-23T11:37:37.434Z,1012.29
2016-10-23T11:38:37.455Z,1012.29
2016-10-23T11:39:37.479Z,1012.29
2016-10-23T11:40:37.499Z,1012.29
2016-10-23T11:41:37.525Z,1012.29
2016-10-23T11:42:37.545Z,1012.27
2016-10-23T11:43:37.569Z,1012.27
2016-10-23T11:44:37.589Z,1012.28
2016-10-23T11:45:37.612Z,1012.26
2016-10-23T11:46:37.635Z,1012.25
2016-10-23T11:47:37.657Z,1012.22
2016-10-23T11:49:37.703Z,1012.22
2016-10-23T11:50:37.725Z,1012.2
2016-10-23T11:51:37.748Z,1012.23
2016-10-23T11:52:37.772Z,1012.23
2016-10-23T11:53:37.795Z,1012.22
2016-10-23T11:54:37.817Z,1012.23
2016-10-23T11:55:37.838Z,1012.22
2016-10-23T11:56:37.863Z,1012.22
2016-10-23T11:57:37.884Z,1012.17
2016-10-23T11:58:37.905Z,1012.21
2016-10-23T11:59:37.928Z,1012.17
2016-10-23T12:00:37.950Z,1012.15
2016-10-23T12:01:37.977Z,1012.13
2016-10-23T12:02:37.994Z,1012.13
2016-10-23T12:03:38.024Z,1012.16
2016-10-23T12:04:38.042Z,1012.13
2016-10-23T12:05:38.063Z,1012.12
2016-10-23T12:06:38.083Z,1012.15
2016-10-23T12:07:38.106Z,1012.14
2016-10-23T12:08:38.130Z,1012.12
2016-10-23T12:09:38.152Z,1012.12
2016-10-23T12:10:38.174Z,1012.16
2016-10-23T12:11:38.195Z,1012.2
2016-10-23T12:12:38.216Z,1012.12
2016-10-23T12:13:38.240Z,1012.16
2016-10-23T12:14:38.263Z,1012.09
2016-10-23T12:15:38.285Z,1012.11
2016-10-23T12:16:38.305Z,1012.09
2016-10-23T12:17:38.327Z,1012.15
2016-10-23T12:18:38.349Z,1012.13
2016-10-23T12:19:38.372Z,1012.07
2016-10-23T12:21:38.415Z,1012.1
2016-10-23T12:22:38.439Z,1012.1
2016-10-23T12:23:38.458Z,1012.07
2016-10-23T12:24:38.480Z,1012.09
2016-10-23T12:25:38.504Z,1012.1
2016-10-23T12:26:38.526Z,1012.07
2016-10-23T12:27:38.548Z,1012.03
2016-10-23T12:28:38.568Z,1012.01
2016-10-23T12:29:38.591Z,1012.02
2016-10-23T12:30:38.611Z,1012.02
2016-10-23T12:31:38.635Z,1012.01
2016-10-23T12:32:38.655Z,1011.99
2016-10-23T12:33:38.679Z,1011.97
2016-10-23T12:34:38.701Z,1012
2016-10-23T12:35:38.723Z,1012
2016-10-23T12:37:38.768Z,1011.97
2016-10-23T12:38:38.785Z,1011.98
2016-10-23T12:39:38.810Z,1011.95
2016-10-23T12:40:38.832Z,1011.98
2016-10-23T12:41:38.853Z,1011.95
2016-10-23T12:42:38.875Z,1011.99
2016-10-23T12:43:38.895Z,1011.95
2016-10-23T12:44:38.919Z,1011.96
2016-10-23T12:45:38.940Z,1011.96
2016-10-23T12:46:38.961Z,1011.93
2016-10-23T12:47:38.985Z,1011.98